OKE-EAST GA US current weather conditions

sailwx.info

Wind from 079 at 3 knots gusting 12

Air temperature 12.8° C
Dewpoint 11.0° C

Last reported at 2019-Dec-12 23:47 UTC.
Time now 2019-Dec-13 00:22 UTC

Location: N 30°44' W 082°08'.
View on Google Maps.

See reports from other nearby stations

  
Tides and Currents Weather Stations Pressure Air Temp Water Temp Dewpoint Dewpoint Depression Visibility Wind Speed Wind Dir Waves Ship Positions
date/time (UTC)wind fromknots sea level pressurealtimeterstation pressurevisibilityair tempwater tempwave heightnotes
2019-Dec-12 23:47 079 3 gusting 12 12.8
2019-Dec-12 22:47 064 3 gusting 10 12.8
2019-Dec-12 21:47 062 3 gusting 11 13.3
2019-Dec-12 20:47 085 4 gusting 14 13.9
2019-Dec-12 19:47 079 6 gusting 13 14.4
2019-Dec-12 18:47 074 5 gusting 12 15.0
2019-Dec-12 17:47 077 6 gusting 13 14.4
2019-Dec-12 16:47 075 5 gusting 13 13.3
2019-Dec-12 15:47 073 4 gusting 9 11.1
2019-Dec-12 14:47 029 2 gusting 8 8.9
2019-Dec-12 13:47 060 3 gusting 6 7.8
2019-Dec-12 12:47 013 1 gusting 6 7.8
2019-Dec-12 11:47 033 2 gusting 8 8.3
2019-Dec-12 10:47 056 3 gusting 7 9.4
2019-Dec-12 09:47 052 3 gusting 9 9.4
2019-Dec-12 08:47 047 3 gusting 8 9.4
2019-Dec-12 07:47 049 2 gusting 9 10.0
2019-Dec-12 06:47 067 2 gusting 11 10.6
2019-Dec-12 05:47 061 4 gusting 13 11.1
2019-Dec-12 04:47 051 3 gusting 8 11.7
2019-Dec-12 03:47 065 3 gusting 9 11.7
2019-Dec-12 02:47 060 2 gusting 8 11.7
2019-Dec-12 01:47 048 1 gusting 6 12.2
2019-Dec-12 00:47 014 2 gusting 7 12.8
2019-Dec-11 23:47 13.3
2019-Dec-11 22:47 097 1 gusting 4 13.3
2019-Dec-11 21:47 062 1 gusting 6 13.9
2019-Dec-11 20:47 020 1 gusting 6 13.9
2019-Dec-11 19:47 030 2 gusting 8 13.9
2019-Dec-11 18:47 054 3 gusting 9 13.9
2019-Dec-11 17:47 359 3 gusting 8 13.9
2019-Dec-11 16:47 012 2 gusting 8 11.7
2019-Dec-11 15:47 347 3 gusting 10 11.1
2019-Dec-11 14:47 342 2 gusting 7 11.7
2019-Dec-11 13:47 341 3 gusting 6 11.7
2019-Dec-11 12:47 329 1 gusting 5 11.7
2019-Dec-11 11:47 315 3 gusting 8 12.2
2019-Dec-11 10:47 334 2 gusting 10 12.8
2019-Dec-11 09:47 321 3 gusting 10 13.9
2019-Dec-11 08:47 321 5 gusting 11 16.1
2019-Dec-11 07:47 262 2 gusting 6 20.6
2019-Dec-11 06:47 248 0 gusting 5 20.0
2019-Dec-11 05:47 280 0 gusting 6 20.6
2019-Dec-11 04:47 284 1 gusting 6 20.6
2019-Dec-11 03:47 18.9
2019-Dec-11 02:47 19.4
2019-Dec-11 01:47 20.6
2019-Dec-11 00:47 20.6